Time;durP1;ratioP1;P1;durP2;ratioP2;P2;SDS_P1;SDS_P2;PMS_P1;PMS_P2;Temp;Humidity;BMP_temperature;BMP_pressure;BME280_temperature;BME280_humidity;BME280_pressure;Samples;Min_cycle;Max_cycle;Signal;HPM_P1;HPM_P2
2023/03/11 00:01:09;;;;;;;17.17;11.27;;;1.00;99.90;;;;;;9844099;30;20203;-86
2023/03/11 00:06:30;;;;;;;14.40;9.37;;;1.00;99.90;;;;;;9833527;30;20206;-85
2023/03/11 00:11:51;;;;;;;13.17;9.57;;;1.00;99.90;;;;;;9808659;30;20219;-85
2023/03/11 00:17:12;;;;;;;14.30;9.60;;;1.00;99.90;;;;;;9825641;30;20541;-85
2023/03/11 00:22:33;;;;;;;12.00;8.80;;;1.10;99.90;;;;;;9845180;30;20227;-85
2023/03/11 00:27:55;;;;;;;12.57;9.10;;;1.10;99.90;;;;;;9856721;30;20206;-86
2023/03/11 00:33:16;;;;;;;14.80;9.20;;;0.90;99.90;;;;;;9831190;30;20288;-85
2023/03/11 00:38:37;;;;;;;13.93;9.03;;;0.80;99.90;;;;;;9831404;30;20230;-85
2023/03/11 00:43:59;;;;;;;11.80;9.17;;;0.80;99.90;;;;;;9808668;30;20211;-85
2023/03/11 00:57:21;;;;;;;13.60;9.50;;;0.60;99.90;;;;;;9869650;30;20238;-85
2023/03/11 01:02:42;;;;;;;11.67;9.47;;;0.60;99.90;;;;;;9853021;30;20206;-84
2023/03/11 01:08:05;;;;;;;14.77;10.70;;;0.70;99.90;;;;;;9857354;30;20210;-85
2023/03/11 01:13:28;;;;;;;13.50;9.20;;;0.60;99.90;;;;;;9870539;30;20198;-86
2023/03/11 01:18:49;;;;;;;12.40;9.73;;;0.80;99.90;;;;;;9832751;30;20238;-86
2023/03/11 01:24:20;;;;;;;12.83;9.43;;;0.80;99.90;;;;;;9832871;30;20289;-86
2023/03/11 01:29:41;;;;;;;17.00;9.30;;;0.70;99.90;;;;;;9796020;30;20218;-85
2023/03/11 01:35:02;;;;;;;11.83;9.00;;;0.70;99.90;;;;;;9838851;30;20302;-84
2023/03/11 01:40:34;;;;;;;11.57;9.10;;;0.60;99.90;;;;;;9862427;30;20218;-85
2023/03/11 01:46:01;;;;;;;15.07;10.10;;;0.70;99.90;;;;;;9859890;30;20260;-85
2023/03/11 01:51:34;;;;;;;11.57;8.37;;;0.70;99.90;;;;;;9837643;30;20293;-84
2023/03/11 01:56:58;;;;;;;9.73;7.17;;;0.50;99.90;;;;;;9837796;30;20272;-85
2023/03/11 02:02:30;;;;;;;10.47;7.47;;;0.40;99.90;;;;;;9836945;30;20231;-86
2023/03/11 02:07:54;;;;;;;12.03;6.83;;;0.40;99.90;;;;;;9825847;30;20280;-85
2023/03/11 02:13:20;;;;;;;9.40;7.80;;;0.30;99.90;;;;;;9801118;30;20282;-86
2023/03/11 02:18:42;;;;;;;9.80;7.20;;;0.30;99.90;;;;;;9818747;30;20262;-85
2023/03/11 02:24:22;;;;;;;11.83;7.87;;;0.30;99.90;;;;;;9838886;30;20238;-85
2023/03/11 02:29:46;;;;;;;10.37;7.13;;;0.30;99.90;;;;;;9812976;30;20270;-86
2023/03/11 02:35:08;;;;;;;9.13;7.17;;;0.30;99.90;;;;;;9819893;30;20553;-86
2023/03/11 02:40:40;;;;;;;8.93;6.80;;;0.30;99.90;;;;;;9864623;30;20209;-85
2023/03/11 02:46:03;;;;;;;8.97;6.23;;;0.30;99.90;;;;;;9859183;30;20513;-84
2023/03/11 02:57:24;;;;;;;9.37;6.27;;;0.20;99.90;;;;;;10075491;24;20280;-78
2023/03/11 03:02:50;;;;;;;7.13;5.60;;;0.30;99.90;;;;;;9838549;30;20288;-77
2023/03/11 03:08:11;;;;;;;5.83;5.00;;;0.20;99.90;;;;;;9863280;30;20255;-78
2023/03/11 03:13:35;;;;;;;6.93;5.27;;;0.20;99.90;;;;;;9886250;30;20241;-78
2023/03/11 03:18:56;;;;;;;5.70;5.07;;;0.20;99.90;;;;;;9894020;30;20222;-78
2023/03/11 03:24:18;;;;;;;5.83;4.47;;;0.20;99.90;;;;;;9845191;30;20229;-78
2023/03/11 03:29:39;;;;;;;5.10;4.40;;;0.30;99.90;;;;;;9867287;30;20285;-78
2023/03/11 03:35:01;;;;;;;5.53;4.67;;;0.30;99.90;;;;;;9881468;30;20284;-78
2023/03/11 03:40:57;;;;;;;6.00;4.97;;;0.20;99.90;;;;;;9899488;30;20535;-79
2023/03/11 03:46:19;;;;;;;6.70;5.63;;;0.20;99.90;;;;;;9868865;30;20389;-78
2023/03/11 03:51:43;;;;;;;7.20;5.80;;;0.30;99.90;;;;;;9897577;30;20216;-78
2023/03/11 03:57:12;;;;;;;7.33;5.83;;;0.30;99.90;;;;;;9888660;30;20262;-78
2023/03/11 04:02:38;;;;;;;6.27;5.23;;;0.40;99.90;;;;;;9913889;30;20287;-78
2023/03/11 04:08:03;;;;;;;6.20;5.60;;;0.40;99.90;;;;;;9868418;30;20443;-78
2023/03/11 04:13:24;;;;;;;10.37;6.03;;;0.40;99.90;;;;;;9887826;30;20226;-78
2023/03/11 04:18:46;;;;;;;5.13;4.63;;;0.50;99.90;;;;;;9880017;30;20530;-76
2023/03/11 04:24:08;;;;;;;6.17;5.00;;;0.50;99.90;;;;;;9890351;30;20214;-79
2023/03/11 04:29:31;;;;;;;5.70;4.43;;;0.40;99.90;;;;;;9877242;30;20205;-78
2023/03/11 04:34:52;;;;;;;6.40;4.70;;;0.30;99.90;;;;;;9916278;30;20228;-77
2023/03/11 04:40:14;;;;;;;6.60;4.53;;;0.40;99.90;;;;;;9923600;30;20232;-77
2023/03/11 04:45:38;;;;;;;14.33;8.87;;;0.30;99.90;;;;;;9928934;30;20208;-80
2023/03/11 04:51:00;;;;;;;6.83;6.13;;;0.30;99.90;;;;;;9922850;30;20213;-77
2023/03/11 04:56:22;;;;;;;9.23;5.23;;;0.20;99.90;;;;;;9914366;30;20255;-79
2023/03/11 05:01:43;;;;;;;6.97;4.80;;;0.30;99.90;;;;;;9906647;30;20227;-80
2023/03/11 05:07:04;;;;;;;6.43;5.20;;;0.20;99.90;;;;;;9846571;30;20208;-79
2023/03/11 05:12:27;;;;;;;6.33;5.17;;;0.10;99.90;;;;;;9888772;29;20239;-79
2023/03/11 05:17:48;;;;;;;8.37;5.33;;;0.00;99.90;;;;;;9878681;30;20232;-80
2023/03/11 05:23:09;;;;;;;9.43;6.23;;;-0.10;99.90;;;;;;9916612;30;20219;-80
2023/03/11 05:28:32;;;;;;;10.87;6.20;;;-0.10;99.90;;;;;;9928007;30;20502;-79
2023/03/11 05:33:54;;;;;;;8.47;5.87;;;0.00;99.90;;;;;;9909442;30;20221;-79
2023/03/11 05:39:15;;;;;;;10.00;6.20;;;-0.10;99.90;;;;;;9912232;30;20567;-79
2023/03/11 05:44:37;;;;;;;11.83;6.80;;;-0.20;99.90;;;;;;9853576;30;20270;-79
2023/03/11 05:49:58;;;;;;;11.37;7.33;;;-0.20;99.90;;;;;;9861459;30;20204;-80
2023/03/11 05:55:20;;;;;;;25.73;12.63;;;-0.20;99.90;;;;;;9900129;30;20253;-79
2023/03/11 06:00:42;;;;;;;11.27;7.17;;;-0.10;99.90;;;;;;9859790;30;20263;-79
2023/03/11 06:06:08;;;;;;;9.53;5.57;;;-0.10;99.90;;;;;;9900803;30;20203;-79
2023/03/11 06:11:31;;;;;;;9.47;6.37;;;-0.10;99.90;;;;;;9904035;30;20238;-78
2023/03/11 06:16:52;;;;;;;13.00;7.97;;;0.00;99.90;;;;;;9927772;30;20474;-79
2023/03/11 06:22:14;;;;;;;12.63;8.23;;;-0.20;99.90;;;;;;9912851;30;20209;-79
2023/03/11 06:27:35;;;;;;;40.90;21.60;;;-0.20;99.90;;;;;;9883489;30;20210;-77
2023/03/11 06:32:58;;;;;;;31.60;19.23;;;-0.20;99.90;;;;;;9894908;30;20223;-79
2023/03/11 06:38:19;;;;;;;37.47;16.67;;;-0.20;99.90;;;;;;9883364;30;20235;-79
2023/03/11 06:43:41;;;;;;;10.90;7.20;;;-0.10;99.90;;;;;;9911313;30;20287;-77
2023/03/11 06:49:02;;;;;;;15.13;6.80;;;-0.10;99.90;;;;;;9927303;30;20223;-76
2023/03/11 06:54:24;;;;;;;12.70;8.57;;;0.00;99.90;;;;;;9932272;29;20231;-79
2023/03/11 06:59:45;;;;;;;11.17;7.43;;;0.00;99.90;;;;;;9897243;30;20593;-78
2023/03/11 07:05:11;;;;;;;11.37;7.20;;;0.10;99.90;;;;;;9898941;30;20453;-80
2023/03/11 07:10:34;;;;;;;9.80;7.00;;;0.20;99.90;;;;;;9911723;30;20294;-77
2023/03/11 07:16:04;;;;;;;14.40;9.53;;;0.10;99.90;;;;;;9918991;30;20370;-79
2023/03/11 07:21:26;;;;;;;18.33;9.80;;;0.10;99.90;;;;;;9927219;30;20213;-77
2023/03/11 07:26:47;;;;;;;15.10;9.80;;;0.20;99.90;;;;;;9932252;30;20197;-77
2023/03/11 07:32:08;;;;;;;9.83;7.37;;;0.30;99.90;;;;;;9925289;30;20220;-76
2023/03/11 07:37:29;;;;;;;11.87;7.10;;;0.30;99.90;;;;;;9931548;29;20317;-77
2023/03/11 07:42:50;;;;;;;22.13;13.10;;;0.30;99.90;;;;;;9891248;30;20215;-78
2023/03/11 07:48:13;;;;;;;18.60;11.93;;;0.20;99.90;;;;;;9892918;30;20546;-78
2023/03/11 07:53:35;;;;;;;16.10;9.33;;;0.20;99.90;;;;;;9880405;30;20255;-80
2023/03/11 07:58:58;;;;;;;10.30;7.23;;;0.30;99.90;;;;;;9881949;30;20244;-80
2023/03/11 08:04:19;;;;;;;10.77;7.23;;;0.40;99.90;;;;;;9897106;30;20229;-77
2023/03/11 08:09:40;;;;;;;10.00;6.00;;;0.40;99.90;;;;;;9900965;30;20216;-78
2023/03/11 08:15:01;;;;;;;8.47;5.90;;;0.50;99.90;;;;;;9930648;30;20197;-79
2023/03/11 08:20:21;;;;;;;9.40;5.77;;;0.50;99.90;;;;;;9910943;30;20240;-79
2023/03/11 08:25:43;;;;;;;11.67;6.03;;;0.50;99.90;;;;;;9930386;29;20200;-79
2023/03/11 08:31:13;;;;;;;9.13;5.97;;;0.50;99.90;;;;;;9923514;30;20287;-80
2023/03/11 08:36:34;;;;;;;6.43;5.03;;;0.50;99.90;;;;;;9916540;30;20306;-78
2023/03/11 08:41:55;;;;;;;5.97;4.80;;;0.60;99.90;;;;;;9923469;30;20270;-79
2023/03/11 08:47:16;;;;;;;9.00;4.70;;;0.50;99.90;;;;;;9928236;30;20204;-79
2023/03/11 08:52:38;;;;;;;7.80;4.23;;;0.70;99.90;;;;;;9923080;30;20510;-79
2023/03/11 08:57:59;;;;;;;11.07;5.57;;;0.80;99.90;;;;;;9875364;30;20237;-77
2023/03/11 09:03:20;;;;;;;9.20;5.10;;;0.70;99.90;;;;;;9918462;30;20216;-79
2023/03/11 09:08:42;;;;;;;9.17;5.33;;;0.70;99.90;;;;;;9876973;30;20225;-79
2023/03/11 09:14:04;;;;;;;7.70;4.67;;;0.90;99.90;;;;;;9902135;30;20205;-79
2023/03/11 09:19:25;;;;;;;4.47;3.60;;;1.00;99.90;;;;;;9883063;30;20237;-79
2023/03/11 09:24:46;;;;;;;6.97;4.20;;;0.90;99.90;;;;;;9928551;30;20208;-80
2023/03/11 09:30:08;;;;;;;5.53;3.80;;;1.00;99.90;;;;;;9921973;30;20217;-79
2023/03/11 09:35:30;;;;;;;5.53;3.50;;;1.00;99.90;;;;;;9928696;30;20208;-79
2023/03/11 09:41:06;;;;;;;7.07;3.13;;;1.10;99.90;;;;;;9908946;30;20241;-79
2023/03/11 09:46:37;;;;;;;6.53;3.50;;;1.10;99.90;;;;;;9928290;30;20216;-79
2023/03/11 09:52:10;;;;;;;7.53;4.00;;;1.10;99.90;;;;;;9906654;30;20211;-79
2023/03/11 09:57:35;;;;;;;13.00;4.83;;;1.00;99.90;;;;;;9881317;30;20289;-79
2023/03/11 10:02:57;;;;;;;6.40;3.10;;;1.10;99.90;;;;;;9908653;30;20214;-79
2023/03/11 10:08:27;;;;;;;9.33;4.20;;;1.10;99.90;;;;;;9896794;30;20400;-79
2023/03/11 10:14:29;;;;;;;7.73;3.27;;;1.30;99.90;;;;;;9847733;30;20216;-80
2023/03/11 10:20:17;;;;;;;4.83;3.10;;;1.60;99.90;;;;;;9878916;30;20263;-79
2023/03/11 10:25:56;;;;;;;5.20;3.80;;;1.80;99.90;;;;;;9784038;30;20218;-79
2023/03/11 10:31:38;;;;;;;23.07;13.70;;;1.70;99.90;;;;;;9778856;30;20485;-79
2023/03/11 10:37:15;;;;;;;38.60;21.37;;;1.70;99.90;;;;;;9783753;30;20313;-79
2023/03/11 10:42:37;;;;;;;8.50;4.50;;;1.80;99.90;;;;;;9761816;30;20283;-77
2023/03/11 10:47:58;;;;;;;6.83;3.37;;;1.70;99.90;;;;;;9747648;30;20314;-78
2023/03/11 10:53:20;;;;;;;5.00;3.00;;;1.60;99.90;;;;;;9777703;30;20252;-78
2023/03/11 10:58:48;;;;;;;8.13;2.97;;;1.80;99.90;;;;;;9755114;30;20532;-79
2023/03/11 11:04:42;;;;;;;7.23;2.67;;;1.70;99.90;;;;;;9871594;30;20562;-79
2023/03/11 11:10:26;;;;;;;6.63;3.17;;;1.50;99.90;;;;;;9900787;30;20221;-78
2023/03/11 11:15:58;;;;;;;9.27;3.97;;;1.40;99.90;;;;;;9931619;30;20240;-78
2023/03/11 11:21:33;;;;;;;6.03;3.60;;;1.40;99.90;;;;;;9926633;30;20572;-78
2023/03/11 11:27:22;;;;;;;11.40;4.93;;;1.50;99.90;;;;;;9931309;30;20398;-79
2023/03/11 11:32:43;;;;;;;8.37;3.80;;;1.80;99.90;;;;;;9898475;30;20267;-78
2023/03/11 11:38:09;;;;;;;19.63;7.20;;;1.90;99.90;;;;;;9894695;30;20506;-78
2023/03/11 11:43:42;;;;;;;8.33;3.30;;;2.20;99.90;;;;;;9903801;29;20210;-78
2023/03/11 11:49:30;;;;;;;5.67;2.90;;;2.60;99.90;;;;;;9893865;30;20526;-78
2023/03/11 11:54:59;;;;;;;7.80;3.83;;;2.40;99.60;;;;;;9857315;30;20238;-78
2023/03/11 12:00:27;;;;;;;5.70;2.43;;;2.40;99.30;;;;;;9875903;30;20561;-78
2023/03/11 12:06:22;;;;;;;6.60;3.27;;;2.40;97.50;;;;;;9882077;30;20244;-80
2023/03/11 12:11:55;;;;;;;7.13;3.37;;;2.70;96.20;;;;;;9901329;30;20214;-78
2023/03/11 12:17:20;;;;;;;9.03;3.63;;;2.80;96.20;;;;;;9930566;30;20232;-79
2023/03/11 12:22:50;;;;;;;9.90;4.97;;;2.60;94.70;;;;;;9924059;29;20221;-79
2023/03/11 12:28:28;;;;;;;12.50;4.47;;;2.50;93.10;;;;;;9929482;30;20198;-78
2023/03/11 12:34:02;;;;;;;14.30;3.83;;;2.20;95.60;;;;;;9922161;30;20499;-79
2023/03/11 12:39:27;;;;;;;13.03;4.80;;;1.80;99.20;;;;;;9923540;30;20240;-78
2023/03/11 12:44:49;;;;;;;9.40;3.37;;;1.90;99.60;;;;;;9842359;30;20221;-78
2023/03/11 12:50:40;;;;;;;9.57;2.90;;;2.20;99.10;;;;;;9867907;30;20222;-78
2023/03/11 12:56:17;;;;;;;14.60;6.60;;;2.60;96.50;;;;;;9905151;29;20231;-78
2023/03/11 13:02:02;;;;;;;6.10;3.17;;;3.20;92.70;;;;;;9900604;30;20218;-79
2023/03/11 13:07:40;;;;;;;3.33;2.00;;;2.90;87.60;;;;;;9866855;30;20275;-78
2023/03/11 13:13:20;;;;;;;4.63;2.43;;;2.80;90.90;;;;;;9890781;30;20256;-77
2023/03/11 13:18:44;;;;;;;3.27;1.83;;;2.80;86.90;;;;;;9909426;30;20246;-78
2023/03/11 13:24:28;;;;;;;3.20;1.90;;;2.60;90.40;;;;;;9893404;30;20202;-79
2023/03/11 13:30:15;;;;;;;11.13;4.13;;;2.70;91.90;;;;;;9892896;30;20272;-79
2023/03/11 13:35:43;;;;;;;6.43;3.10;;;4.20;60.70;;;;;;9920348;30;20310;-80
2023/03/11 13:41:20;;;;;;;5.53;2.50;;;4.60;42.30;;;;;;9921644;30;20263;-80
2023/03/11 13:46:48;;;;;;;5.73;3.33;;;3.90;40.70;;;;;;9940740;30;20199;-79
2023/03/11 13:52:22;;;;;;;5.27;2.93;;;3.50;45.10;;;;;;9933728;30;20402;-78
2023/03/11 13:57:54;;;;;;;11.30;3.80;;;2.90;43.60;;;;;;9890613;29;20261;-77
2023/03/11 14:03:20;;;;;;;11.40;4.27;;;2.40;49.70;;;;;;9871390;30;20210;-78
2023/03/11 14:08:42;;;;;;;8.53;2.80;;;2.30;55.30;;;;;;9901808;30;20512;-80
2023/03/11 14:14:37;;;;;;;4.73;2.23;;;2.50;64.10;;;;;;9916872;30;20205;-77
2023/03/11 14:20:27;;;;;;;6.53;3.63;;;2.40;55.50;;;;;;9914918;30;20320;-79
2023/03/11 14:25:57;;;;;;;7.20;2.77;;;2.20;44.90;;;;;;9939167;30;20208;-79
2023/03/11 14:31:24;;;;;;;6.60;2.97;;;1.90;50.60;;;;;;9908867;30;20523;-79
2023/03/11 14:36:53;;;;;;;22.57;5.80;;;1.80;53.90;;;;;;9891397;30;20280;-79
2023/03/11 14:42:21;;;;;;;10.17;4.07;;;1.60;60.30;;;;;;9904252;30;20248;-79
2023/03/11 14:47:43;;;;;;;14.43;4.40;;;1.50;61.20;;;;;;9906771;30;20449;-79
2023/03/11 14:53:29;;;;;;;36.77;18.03;;;1.70;76.80;;;;;;9926771;30;20213;-79
2023/03/11 14:59:22;;;;;;;11.87;4.90;;;1.90;64.90;;;;;;9892011;30;20261;-79
2023/03/11 15:04:43;;;;;;;10.17;3.33;;;2.10;73.70;;;;;;9883903;30;20223;-79
2023/03/11 15:10:09;;;;;;;9.00;3.30;;;2.40;74.50;;;;;;9909923;30;20251;-79
2023/03/11 15:15:30;;;;;;;6.43;2.83;;;2.40;77.60;;;;;;9903848;29;20217;-79
2023/03/11 15:21:11;;;;;;;9.40;3.93;;;2.40;72.60;;;;;;9896851;30;20238;-79
2023/03/11 15:26:34;;;;;;;7.97;3.20;;;2.40;76.50;;;;;;9926173;30;20409;-80
2023/03/11 15:31:56;;;;;;;6.53;2.30;;;2.20;60.50;;;;;;9926668;30;20210;-80
2023/03/11 15:37:19;;;;;;;7.60;3.10;;;2.00;73.20;;;;;;9845088;30;20231;-79
2023/03/11 15:42:40;;;;;;;7.43;3.17;;;1.90;87.80;;;;;;9857036;30;20210;-79
2023/03/11 15:48:01;;;;;;;17.73;6.23;;;1.90;90.40;;;;;;9930630;30;20304;-79
2023/03/11 15:53:24;;;;;;;15.13;5.60;;;2.00;91.80;;;;;;9924996;29;21061;-79
2023/03/11 15:58:45;;;;;;;8.67;3.67;;;2.00;92.10;;;;;;9865164;30;20246;-79
2023/03/11 16:04:14;;;;;;;5.03;2.47;;;2.00;91.00;;;;;;9885552;30;20214;-79
2023/03/11 16:09:35;;;;;;;3.47;2.37;;;2.00;89.70;;;;;;9894139;30;20209;-79
2023/03/11 16:15:13;;;;;;;4.30;2.40;;;1.90;92.30;;;;;;9912628;30;20217;-80
2023/03/11 16:20:44;;;;;;;7.03;3.20;;;1.70;93.50;;;;;;9929735;30;20229;-79
2023/03/11 16:26:07;;;;;;;4.57;2.77;;;1.70;92.90;;;;;;9924852;30;20209;-80
2023/03/11 16:31:30;;;;;;;4.53;2.70;;;1.60;94.30;;;;;;9900665;30;20275;-79
2023/03/11 16:36:51;;;;;;;9.47;4.67;;;1.50;95.00;;;;;;9892294;30;20520;-79
2023/03/11 16:42:22;;;;;;;9.87;4.40;;;1.50;95.10;;;;;;9883257;30;20361;-79
2023/03/11 16:47:43;;;;;;;11.67;4.17;;;1.30;96.20;;;;;;9929742;29;20495;-79
2023/03/11 16:53:04;;;;;;;4.80;2.87;;;1.20;97.10;;;;;;9922857;30;20209;-79
2023/03/11 16:58:25;;;;;;;6.40;3.30;;;1.20;96.90;;;;;;9885577;30;20245;-79
2023/03/11 17:03:48;;;;;;;5.47;2.90;;;1.10;97.90;;;;;;9898284;30;20206;-79
2023/03/11 17:09:10;;;;;;;9.10;3.30;;;1.10;98.80;;;;;;9891509;30;20515;-79
2023/03/11 17:14:31;;;;;;;6.03;3.00;;;1.10;99.60;;;;;;9912746;30;20208;-81
2023/03/11 17:19:52;;;;;;;10.20;4.03;;;1.20;99.90;;;;;;9928013;30;20277;-80
2023/03/11 17:25:13;;;;;;;9.83;4.67;;;1.30;99.90;;;;;;9897600;30;20202;-79
2023/03/11 17:30:34;;;;;;;6.23;3.90;;;1.40;99.90;;;;;;9878018;30;20215;-80
2023/03/11 17:36:04;;;;;;;7.53;3.93;;;1.40;99.90;;;;;;9897812;30;20206;-79
2023/03/11 17:41:25;;;;;;;5.37;3.43;;;1.30;99.90;;;;;;9890685;30;20269;-79
2023/03/11 17:46:46;;;;;;;4.33;2.93;;;1.20;99.90;;;;;;9853553;30;20207;-79
2023/03/11 17:52:07;;;;;;;7.10;3.10;;;1.10;99.90;;;;;;9862412;30;20210;-79
2023/03/11 17:57:28;;;;;;;5.03;3.23;;;1.00;99.90;;;;;;9881353;30;20250;-79
2023/03/11 18:02:53;;;;;;;5.53;2.90;;;1.00;99.90;;;;;;9870665;30;20206;-78
2023/03/11 18:08:14;;;;;;;8.10;4.63;;;0.90;99.90;;;;;;9890818;30;20206;-78
2023/03/11 18:13:36;;;;;;;13.87;7.27;;;0.70;99.90;;;;;;9901702;30;20237;-79
2023/03/11 18:18:57;;;;;;;10.40;6.37;;;0.70;99.90;;;;;;9914341;29;20236;-78
2023/03/11 18:24:18;;;;;;;18.43;9.03;;;0.70;99.90;;;;;;9928370;30;20255;-80
2023/03/11 18:29:40;;;;;;;29.97;11.50;;;0.70;99.90;;;;;;9928001;30;20213;-79
2023/03/11 18:35:01;;;;;;;22.20;9.40;;;0.70;99.90;;;;;;9929087;30;20212;-78
2023/03/11 18:40:22;;;;;;;24.80;9.57;;;0.70;99.90;;;;;;9920249;30;20256;-79
2023/03/11 18:45:44;;;;;;;13.47;5.00;;;0.60;99.90;;;;;;9902132;30;20213;-79
2023/03/11 18:51:07;;;;;;;6.97;4.17;;;0.60;99.90;;;;;;9920210;30;20282;-79
2023/03/11 18:56:31;;;;;;;6.67;3.57;;;0.50;99.90;;;;;;9881348;30;20255;-78
2023/03/11 19:01:53;;;;;;;7.33;3.40;;;0.50;99.90;;;;;;9895902;30;20230;-79
2023/03/11 19:07:14;;;;;;;4.97;3.10;;;0.40;99.90;;;;;;9895219;30;20208;-78
2023/03/11 19:12:35;;;;;;;5.60;2.80;;;0.30;99.90;;;;;;9912154;30;20294;-79
2023/03/11 19:17:57;;;;;;;4.90;3.00;;;0.30;99.90;;;;;;9932070;30;20522;-79
2023/03/11 19:23:26;;;;;;;7.67;3.00;;;0.30;99.90;;;;;;9914271;30;20220;-79
2023/03/11 19:28:48;;;;;;;4.00;2.80;;;0.20;99.90;;;;;;9932610;30;20200;-79
2023/03/11 19:34:09;;;;;;;6.20;3.00;;;0.30;99.90;;;;;;9926402;29;20448;-78
2023/03/11 19:39:30;;;;;;;10.93;3.27;;;0.20;99.90;;;;;;9931050;30;20229;-78
2023/03/11 19:44:53;;;;;;;4.67;2.47;;;0.10;99.90;;;;;;9925373;30;20435;-79
2023/03/11 19:50:14;;;;;;;6.90;3.10;;;0.20;99.90;;;;;;9930679;30;20212;-79
2023/03/11 19:55:35;;;;;;;5.53;2.80;;;0.20;99.90;;;;;;9894388;30;20244;-79
2023/03/11 20:00:57;;;;;;;7.43;3.60;;;0.20;99.90;;;;;;9857535;30;20240;-79
2023/03/11 20:06:19;;;;;;;12.30;5.03;;;0.20;99.90;;;;;;9860868;30;20216;-79
2023/03/11 20:11:41;;;;;;;5.83;3.60;;;0.10;99.90;;;;;;9856295;30;20381;-78
2023/03/11 20:17:02;;;;;;;11.17;4.60;;;0.10;99.90;;;;;;9900972;30;20213;-78
2023/03/11 20:22:23;;;;;;;12.50;5.37;;;0.10;99.90;;;;;;9890443;30;20232;-79
2023/03/11 20:27:44;;;;;;;14.10;5.73;;;0.10;99.90;;;;;;9892311;30;20222;-79
2023/03/11 20:33:06;;;;;;;20.87;9.23;;;0.10;99.90;;;;;;9882443;30;20220;-79
2023/03/11 20:38:28;;;;;;;17.67;8.90;;;0.20;99.90;;;;;;9891378;30;20313;-79
2023/03/11 20:43:54;;;;;;;18.37;7.53;;;0.20;99.90;;;;;;9915102;30;20221;-79
2023/03/11 20:49:15;;;;;;;13.03;6.03;;;0.30;99.90;;;;;;9929119;30;20250;-79
2023/03/11 20:54:36;;;;;;;12.23;5.53;;;0.40;99.90;;;;;;9919103;30;20263;-79
2023/03/11 20:59:57;;;;;;;13.60;6.20;;;0.40;99.90;;;;;;9841942;30;20551;-79
2023/03/11 21:05:18;;;;;;;11.80;6.23;;;0.40;99.90;;;;;;9876178;30;20293;-77
2023/03/11 21:10:40;;;;;;;6.97;3.90;;;0.50;99.90;;;;;;9887462;30;20219;-78
2023/03/11 21:16:03;;;;;;;8.23;4.37;;;0.50;99.90;;;;;;9887929;30;20213;-78
2023/03/11 21:21:24;;;;;;;9.33;4.87;;;0.40;99.90;;;;;;9891870;30;20225;-79
2023/03/11 21:26:47;;;;;;;11.67;6.00;;;0.40;99.90;;;;;;9920223;30;20269;-79
2023/03/11 21:32:08;;;;;;;13.27;6.27;;;0.40;99.90;;;;;;9926919;30;20202;-79
2023/03/11 21:37:29;;;;;;;14.37;6.90;;;0.30;99.90;;;;;;9926714;30;20387;-79
2023/03/11 21:42:50;;;;;;;20.37;8.50;;;0.30;99.90;;;;;;9897185;30;20198;-79
2023/03/11 21:48:12;;;;;;;14.17;7.10;;;0.20;99.90;;;;;;9927244;30;20493;-78
2023/03/11 21:53:34;;;;;;;11.20;6.23;;;0.20;99.90;;;;;;9917796;30;20281;-79
2023/03/11 21:58:56;;;;;;;12.97;7.10;;;0.10;99.90;;;;;;9862003;30;20245;-79
2023/03/11 22:04:17;;;;;;;13.50;6.70;;;0.10;99.90;;;;;;9886468;30;20518;-78
2023/03/11 22:09:38;;;;;;;11.67;5.93;;;0.10;99.90;;;;;;9933980;30;20215;-80
2023/03/11 22:14:59;;;;;;;18.47;7.67;;;0.10;99.90;;;;;;9928510;30;20205;-80
2023/03/11 22:20:20;;;;;;;10.50;5.50;;;0.10;99.90;;;;;;9934002;30;20232;-78
2023/03/11 22:25:41;;;;;;;8.60;5.50;;;0.20;99.90;;;;;;9928113;30;20223;-79
2023/03/11 22:31:11;;;;;;;8.03;4.90;;;0.30;99.90;;;;;;9933331;30;20235;-79
2023/03/11 22:36:32;;;;;;;10.30;4.93;;;0.30;99.90;;;;;;9928660;30;20205;-79
2023/03/11 22:41:53;;;;;;;13.90;6.60;;;0.40;99.90;;;;;;9933105;30;20260;-79
2023/03/11 22:47:14;;;;;;;11.73;5.03;;;0.40;99.90;;;;;;9914402;30;20418;-78
2023/03/11 22:52:36;;;;;;;11.70;4.97;;;0.50;99.90;;;;;;9931303;30;20211;-78
2023/03/11 22:57:57;;;;;;;11.43;5.60;;;0.40;99.90;;;;;;9882529;30;20268;-79
2023/03/11 23:03:18;;;;;;;13.60;6.07;;;0.40;99.90;;;;;;9923744;30;20240;-78
2023/03/11 23:08:39;;;;;;;10.33;4.93;;;0.40;99.90;;;;;;9927123;29;20202;-79
2023/03/11 23:14:00;;;;;;;9.33;5.00;;;0.40;99.90;;;;;;9867490;30;20229;-80
2023/03/11 23:19:21;;;;;;;8.90;4.10;;;0.40;99.90;;;;;;9897901;30;20250;-79
2023/03/11 23:24:43;;;;;;;8.97;4.63;;;0.40;99.90;;;;;;9932129;30;20450;-79
2023/03/11 23:30:05;;;;;;;7.27;4.23;;;0.40;99.90;;;;;;9926954;30;20466;-80
2023/03/11 23:35:26;;;;;;;9.57;4.40;;;0.40;99.90;;;;;;9932715;30;20245;-80
2023/03/11 23:40:47;;;;;;;7.73;4.17;;;0.50;99.90;;;;;;9926799;30;20236;-78
2023/03/11 23:46:09;;;;;;;9.40;4.47;;;0.50;99.90;;;;;;9930963;30;20205;-78
2023/03/11 23:51:30;;;;;;;10.03;4.57;;;0.60;99.90;;;;;;9925529;30;20213;-79
2023/03/11 23:56:51;;;;;;;7.90;4.00;;;0.50;99.90;;;;;;9903779;29;20317;-79
